createdAt,value
2018-04-14T00:00:01.151Z,85.97
2018-04-14T00:02:27.156Z,89.43
2018-04-14T00:04:53.217Z,86.85
2018-04-14T00:07:19.217Z,81.80
2018-04-14T00:09:45.236Z,81.90
2018-04-14T00:12:11.229Z,87.90
2018-04-14T00:14:37.339Z,91.10
2018-04-14T00:17:03.408Z,85.12
2018-04-14T00:19:29.421Z,84.60
2018-04-14T00:21:55.449Z,87.60
2018-04-14T00:24:21.481Z,95.35
2018-04-14T00:26:47.521Z,85.10
2018-04-14T00:29:13.573Z,92.68
2018-04-14T00:31:39.644Z,89.90
2018-04-14T00:34:05.675Z,79.45
2018-04-14T00:36:31.683Z,83.53
2018-04-14T00:38:57.722Z,85.55
2018-04-14T00:41:23.739Z,88.22
2018-04-14T00:43:49.756Z,92.10
2018-04-14T00:46:15.865Z,96.18
2018-04-14T00:48:42.118Z,84.78
2018-04-14T00:51:08.229Z,85.10
2018-04-14T00:53:46.556Z,89.57
2018-04-14T00:56:12.730Z,85.82
2018-04-14T00:58:38.794Z,91.68
2018-04-14T01:01:04.845Z,84.97
2018-04-14T01:03:30.870Z,89.35
2018-04-14T01:05:56.905Z,92.40
2018-04-14T01:08:22.910Z,92.78
2018-04-14T01:10:49.000Z,81.22
2018-04-14T01:13:15.017Z,96.53
2018-04-14T01:15:41.060Z,89.60
2018-04-14T01:18:07.126Z,96.95
2018-04-14T01:20:33.136Z,86.25
2018-04-14T01:22:59.143Z,90.18
2018-04-14T01:25:25.275Z,86.40
2018-04-14T01:27:51.269Z,89.47
2018-04-14T01:30:17.308Z,89.72
2018-04-14T01:32:43.324Z,82.07
2018-04-14T01:35:09.352Z,84.93
2018-04-14T01:37:35.438Z,85.40
2018-04-14T01:40:01.442Z,80.80
2018-04-14T01:42:27.545Z,81.55
2018-04-14T01:44:53.613Z,90.32
2018-04-14T01:47:19.833Z,77.55
2018-04-14T01:49:45.833Z,80.93
2018-04-14T01:52:12.603Z,77.68
2018-04-14T01:54:38.672Z,86.07
2018-04-14T01:57:04.733Z,83.18
2018-04-14T01:59:30.754Z,73.55
2018-04-14T02:01:56.754Z,76.72
2018-04-14T02:04:22.789Z,78.97
2018-04-14T02:06:48.821Z,76.43
2018-04-14T02:09:14.859Z,79.40
2018-04-14T02:11:40.894Z,87.75
2018-04-14T02:14:06.932Z,79.15
2018-04-14T02:16:32.973Z,84.00
2018-04-14T02:18:58.980Z,79.78
2018-04-14T02:21:25.037Z,83.12
2018-04-14T02:23:51.090Z,84.43
2018-04-14T02:26:17.252Z,87.62
2018-04-14T02:28:43.279Z,87.68
2018-04-14T02:31:09.339Z,100.20
2018-04-14T02:33:35.399Z,90.68
2018-04-14T02:36:01.448Z,90.78
2018-04-14T02:38:27.503Z,95.62
2018-04-14T02:40:53.549Z,90.50
2018-04-14T02:43:19.635Z,104.32
2018-04-14T02:45:45.671Z,100.87
2018-04-14T02:48:11.675Z,99.65
2018-04-14T02:50:37.800Z,89.80
2018-04-14T02:53:03.934Z,110.68
2018-04-14T02:55:29.935Z,80.68
2018-04-14T02:57:55.932Z,101.90
2018-04-14T03:00:22.096Z,113.47
2018-04-14T03:02:48.223Z,94.53
2018-04-14T03:05:14.312Z,68.22
2018-04-14T03:07:40.322Z,95.53
2018-04-14T03:10:06.414Z,94.82
2018-04-14T03:12:32.473Z,100.72
2018-04-14T03:14:58.480Z,78.80
2018-04-14T03:17:24.496Z,88.95
2018-04-14T03:19:50.593Z,82.85
2018-04-14T03:22:16.652Z,73.15
2018-04-14T03:24:42.660Z,67.78
2018-04-14T03:27:08.675Z,71.37
2018-04-14T03:29:34.712Z,70.12
2018-04-14T03:32:00.722Z,72.07
2018-04-14T03:34:26.723Z,60.70
2018-04-14T03:36:52.820Z,59.83
2018-04-14T03:39:18.813Z,66.22
2018-04-14T03:41:44.840Z,67.03
2018-04-14T03:44:10.892Z,62.08
2018-04-14T03:46:36.934Z,58.97
2018-04-14T03:49:02.944Z,59.17
2018-04-14T03:51:29.024Z,71.60
2018-04-14T03:53:55.039Z,64.53
2018-04-14T03:56:21.028Z,64.07
2018-04-14T05:49:00.509Z,101.00
2018-04-14T05:51:26.574Z,94.50
2018-04-14T05:53:52.632Z,93.32
2018-04-14T05:56:18.729Z,96.00
2018-04-14T05:58:44.748Z,99.47
2018-04-14T06:01:10.756Z,92.85
2018-04-14T06:03:36.784Z,90.00
2018-04-14T06:06:02.849Z,89.22
2018-04-14T06:08:28.875Z,93.72
2018-04-14T06:10:55.233Z,90.15
2018-04-14T06:13:21.276Z,94.07
2018-04-14T06:15:47.287Z,84.78
2018-04-14T06:18:13.324Z,90.75
2018-04-14T06:20:39.371Z,71.95
2018-04-14T06:23:05.368Z,96.18
2018-04-14T06:25:31.437Z,93.03
2018-04-14T06:27:57.521Z,87.37
2018-04-14T06:30:23.577Z,101.22
2018-04-14T06:32:49.620Z,92.25
2018-04-14T06:35:15.654Z,95.80
2018-04-14T06:37:41.773Z,101.05
2018-04-14T06:40:07.876Z,72.87
2018-04-14T06:42:34.072Z,69.07
2018-04-14T06:45:00.133Z,71.03
2018-04-14T06:47:26.204Z,89.00
2018-04-14T06:49:52.334Z,73.12
2018-04-14T06:52:18.481Z,90.68
2018-04-14T06:54:44.527Z,66.78
2018-04-14T06:57:10.600Z,64.87
2018-04-14T06:59:36.740Z,79.25
2018-04-14T07:02:02.880Z,71.00
2018-04-14T07:04:29.019Z,72.65
2018-04-14T07:06:54.970Z,81.18
2018-04-14T07:09:21.011Z,83.45
2018-04-14T07:11:47.092Z,69.37
2018-04-14T07:14:13.153Z,91.75
2018-04-14T07:16:39.153Z,66.70
2018-04-14T07:19:05.239Z,83.80
2018-04-14T07:21:31.314Z,92.43
2018-04-14T07:23:57.379Z,68.32
2018-04-14T07:26:23.433Z,89.10
2018-04-14T07:28:49.490Z,64.68
2018-04-14T07:31:15.576Z,69.17
2018-04-14T07:33:41.629Z,83.80
2018-04-14T07:36:07.731Z,60.12
2018-04-14T07:38:33.842Z,77.43
2018-04-14T07:40:59.920Z,71.20
2018-04-14T07:43:25.991Z,58.57
2018-04-14T07:45:52.031Z,61.97
2018-04-14T07:48:18.271Z,57.87
2018-04-14T07:50:44.316Z,56.73
2018-04-14T07:53:10.410Z,58.87
2018-04-14T07:55:36.513Z,52.60
2018-04-14T07:58:02.791Z,52.83
2018-04-14T08:00:28.828Z,50.43
2018-04-14T08:02:54.917Z,49.90
2018-04-14T08:05:20.965Z,47.67
2018-04-14T08:07:46.978Z,48.77
2018-04-14T08:10:13.028Z,51.13
2018-04-14T08:12:39.042Z,46.17
2018-04-14T08:15:05.036Z,47.47
2018-04-14T08:17:31.080Z,45.50
2018-04-14T08:19:57.160Z,44.83
2018-04-14T08:22:23.195Z,38.27
2018-04-14T08:24:49.227Z,40.10
2018-04-14T08:27:15.277Z,39.03
2018-04-14T08:29:41.294Z,40.60
2018-04-14T08:32:07.335Z,42.13
2018-04-14T08:34:33.358Z,39.50
2018-04-14T08:36:59.375Z,39.43
2018-04-14T08:39:25.414Z,36.77
2018-04-14T08:41:51.471Z,36.90
2018-04-14T08:44:17.510Z,39.77
2018-04-14T08:46:43.514Z,39.53
2018-04-14T08:49:09.583Z,36.73
2018-04-14T08:51:35.634Z,39.87
2018-04-14T08:54:01.708Z,37.63
2018-04-14T08:56:27.735Z,42.17
2018-04-14T08:58:53.720Z,36.70
2018-04-14T09:01:20.512Z,40.37
2018-04-14T09:03:46.638Z,39.90
2018-04-14T09:06:12.664Z,36.23
2018-04-14T09:08:38.720Z,34.23
2018-04-14T09:11:04.767Z,42.33
2018-04-14T09:13:30.799Z,35.30
2018-04-14T09:15:56.881Z,40.10
2018-04-14T09:18:22.893Z,44.43
2018-04-14T09:20:48.948Z,41.27
2018-04-14T09:23:14.972Z,40.10
2018-04-14T09:25:40.983Z,39.27
2018-04-14T09:28:07.026Z,33.50
2018-04-14T09:30:33.040Z,34.53
2018-04-14T09:32:59.054Z,33.97
2018-04-14T09:35:25.080Z,31.13
2018-04-14T09:37:51.111Z,32.80
2018-04-14T09:40:17.249Z,28.97
2018-04-14T09:42:43.778Z,31.10
2018-04-14T09:45:09.888Z,30.73
2018-04-14T09:47:35.949Z,30.50
2018-04-14T09:50:02.010Z,30.67
2018-04-14T09:52:28.680Z,35.70
2018-04-14T09:54:54.698Z,33.70
2018-04-14T09:57:20.742Z,32.07
2018-04-14T09:59:46.748Z,31.80
2018-04-14T10:02:12.799Z,34.33
2018-04-14T10:04:46.520Z,33.40
2018-04-14T10:07:12.573Z,31.70
2018-04-14T10:09:38.725Z,30.57
2018-04-14T10:12:04.753Z,31.13
2018-04-14T10:14:30.759Z,28.30
2018-04-14T10:16:56.813Z,29.17
2018-04-14T10:19:22.901Z,28.43
2018-04-14T10:21:48.958Z,27.53
2018-04-14T10:24:14.983Z,28.83
2018-04-14T10:26:40.989Z,29.80
2018-04-14T10:29:06.998Z,26.00
2018-04-14T10:31:33.029Z,29.30
2018-04-14T10:33:59.025Z,28.00
2018-04-14T10:36:25.020Z,27.63
2018-04-14T10:38:51.059Z,28.43
2018-04-14T10:41:17.060Z,27.47
2018-04-14T10:43:43.045Z,24.00
2018-04-14T10:46:09.082Z,26.17
2018-04-14T10:48:35.133Z,26.03
2018-04-14T10:51:01.144Z,28.30
2018-04-14T10:53:27.183Z,27.80
2018-04-14T10:55:53.172Z,24.57
2018-04-14T10:58:19.175Z,24.30
2018-04-14T11:00:45.172Z,25.47
2018-04-14T11:03:11.208Z,22.90
2018-04-14T11:05:37.193Z,26.27
2018-04-14T11:08:03.244Z,20.67
2018-04-14T11:10:29.243Z,16.90
2018-04-14T11:12:55.268Z,17.40
2018-04-14T11:15:21.290Z,18.43
2018-04-14T11:17:47.326Z,16.87
2018-04-14T11:20:13.433Z,15.00
2018-04-14T11:22:39.513Z,18.73
2018-04-14T11:25:05.520Z,18.73
2018-04-14T11:27:31.544Z,20.77
2018-04-14T11:29:57.573Z,18.37
2018-04-14T11:32:23.650Z,16.30
2018-04-14T11:34:49.670Z,18.27
2018-04-14T11:37:15.711Z,18.60
2018-04-14T11:39:41.762Z,17.87
2018-04-14T11:42:07.876Z,18.27
2018-04-14T11:44:33.905Z,16.77
2018-04-14T11:46:59.931Z,18.27
2018-04-14T11:49:26.094Z,17.97
2018-04-14T11:51:52.184Z,17.27
2018-04-14T11:54:18.497Z,17.33
2018-04-14T11:56:44.571Z,18.13
2018-04-14T11:59:10.614Z,19.93
2018-04-14T12:01:36.666Z,19.90
2018-04-14T12:04:02.700Z,17.53
2018-04-14T12:06:28.821Z,18.50
2018-04-14T12:08:54.856Z,16.73
2018-04-14T12:11:20.905Z,17.33
2018-04-14T12:13:46.963Z,17.60
2018-04-14T12:16:13.020Z,19.40
2018-04-14T12:18:39.133Z,18.80
2018-04-14T12:21:05.140Z,17.37
2018-04-14T12:23:31.169Z,17.93
2018-04-14T12:25:57.183Z,18.47
2018-04-14T12:28:23.243Z,18.07
2018-04-14T12:30:49.327Z,20.73
2018-04-14T12:33:15.413Z,16.80
2018-04-14T12:35:41.476Z,19.10
2018-04-14T12:38:07.543Z,18.47
2018-04-14T12:40:33.562Z,17.80
2018-04-14T12:42:59.572Z,17.73
2018-04-14T12:45:25.637Z,17.03
2018-04-14T12:47:51.677Z,16.20
2018-04-14T12:50:17.714Z,15.30
2018-04-14T12:52:43.824Z,21.23
2018-04-14T12:55:09.938Z,19.80
2018-04-14T12:57:35.986Z,18.83
2018-04-14T13:00:02.013Z,16.73
2018-04-14T13:02:28.152Z,17.80
2018-04-14T13:04:54.262Z,21.03
2018-04-14T13:07:20.352Z,18.73
2018-04-14T13:09:46.340Z,18.33
2018-04-14T13:12:12.373Z,18.43
2018-04-14T13:14:38.491Z,19.57
2018-04-14T13:17:04.565Z,18.77
2018-04-14T13:19:30.574Z,18.23
2018-04-14T13:21:56.633Z,16.47
2018-04-14T13:24:22.797Z,18.97
2018-04-14T13:26:48.812Z,21.27
2018-04-14T13:29:14.838Z,17.83
2018-04-14T13:31:40.882Z,17.17
2018-04-14T13:34:06.902Z,18.27
2018-04-14T13:36:32.930Z,17.97
2018-04-14T13:38:58.990Z,18.53
2018-04-14T13:41:25.110Z,17.23
2018-04-14T13:43:51.081Z,22.10
2018-04-14T13:46:17.144Z,18.53
2018-04-14T13:48:43.191Z,19.23
2018-04-14T13:51:09.188Z,18.27
2018-04-14T13:53:35.230Z,18.67
2018-04-14T13:56:01.234Z,18.73
2018-04-14T13:58:28.017Z,18.60
2018-04-14T14:00:54.111Z,18.47
2018-04-14T14:03:20.117Z,17.70
2018-04-14T14:05:46.116Z,17.70
2018-04-14T14:08:12.194Z,18.20
2018-04-14T14:10:38.273Z,18.33
2018-04-14T14:13:04.292Z,17.17
2018-04-14T14:15:30.362Z,16.80
2018-04-14T14:17:56.433Z,19.70
2018-04-14T14:20:22.491Z,18.33
2018-04-14T14:22:48.626Z,18.37
2018-04-14T14:25:15.278Z,20.33
2018-04-14T14:27:41.325Z,18.57
2018-04-14T14:30:07.387Z,17.70
2018-04-14T14:32:33.384Z,17.60
2018-04-14T14:34:59.384Z,22.20
2018-04-14T14:37:25.396Z,19.13
2018-04-14T14:39:51.456Z,18.57
2018-04-14T14:42:17.465Z,18.13
2018-04-14T14:44:43.538Z,18.67
2018-04-14T14:47:09.623Z,18.97
2018-04-14T14:49:35.622Z,17.63
2018-04-14T14:52:01.643Z,19.27
2018-04-14T14:54:27.697Z,18.23
2018-04-14T14:56:53.830Z,18.70
2018-04-14T14:59:19.844Z,19.13
2018-04-14T15:01:45.859Z,20.23
2018-04-14T15:04:11.984Z,18.67
2018-04-14T15:06:38.211Z,18.10
2018-04-14T15:09:05.142Z,19.27
2018-04-14T15:11:31.204Z,19.83
2018-04-14T15:13:57.234Z,20.57
2018-04-14T15:16:23.307Z,19.33
2018-04-14T15:18:49.339Z,20.93
2018-04-14T15:21:15.359Z,20.00
2018-04-14T15:23:41.378Z,19.07
2018-04-14T15:26:07.435Z,18.07
2018-04-14T15:28:33.516Z,18.40
2018-04-14T15:30:59.493Z,18.63
2018-04-14T15:33:25.572Z,18.50
2018-04-14T15:35:51.566Z,18.33
2018-04-14T15:38:17.583Z,17.83
2018-04-14T15:40:43.654Z,18.37
2018-04-14T15:43:09.810Z,17.27
2018-04-14T15:45:35.910Z,18.23
2018-04-14T15:48:01.924Z,18.23
2018-04-14T15:50:27.949Z,18.77
2018-04-14T15:52:54.025Z,18.67
2018-04-14T15:55:20.107Z,20.00
2018-04-14T15:57:46.158Z,17.37
2018-04-14T16:00:12.173Z,18.73
2018-04-14T16:02:38.316Z,18.50
2018-04-14T16:05:04.333Z,19.17
2018-04-14T16:07:30.524Z,18.87
2018-04-14T16:09:56.546Z,19.13
2018-04-14T16:12:22.731Z,19.90
2018-04-14T16:14:48.799Z,18.17
2018-04-14T16:17:14.849Z,20.53
2018-04-14T16:19:40.872Z,20.93
2018-04-14T16:22:06.930Z,19.33
2018-04-14T16:24:33.008Z,20.23
2018-04-14T16:26:59.014Z,19.60
2018-04-14T16:29:25.026Z,21.00
2018-04-14T16:31:51.132Z,17.60
2018-04-14T16:34:17.156Z,19.23
2018-04-14T16:36:43.160Z,19.50
2018-04-14T16:39:09.239Z,19.07
2018-04-14T16:41:35.259Z,20.30
2018-04-14T16:44:01.269Z,20.57
2018-04-14T16:46:27.274Z,19.23
2018-04-14T16:48:53.332Z,19.17
2018-04-14T16:51:19.321Z,19.63
2018-04-14T16:53:45.392Z,20.90
2018-04-14T16:56:11.403Z,19.23
2018-04-14T16:58:37.395Z,19.57
2018-04-14T17:01:03.402Z,19.87
2018-04-14T17:03:29.439Z,17.80
2018-04-14T17:05:55.556Z,18.43
2018-04-14T17:08:21.588Z,21.60
2018-04-14T17:10:47.705Z,20.63
2018-04-14T17:13:13.769Z,19.87
2018-04-14T17:15:39.867Z,19.67
2018-04-14T17:18:05.962Z,21.30
2018-04-14T17:20:32.000Z,20.27
2018-04-14T17:22:58.092Z,19.90
2018-04-14T17:25:24.296Z,19.30
2018-04-14T17:27:50.341Z,18.47
2018-04-14T17:30:16.377Z,18.27
2018-04-14T17:32:42.648Z,22.23
2018-04-14T17:35:08.749Z,19.30
2018-04-14T17:37:34.898Z,19.27
2018-04-14T17:40:00.887Z,20.40
2018-04-14T17:42:26.977Z,20.63
2018-04-14T17:44:53.045Z,21.83
2018-04-14T17:47:19.053Z,21.80
2018-04-14T17:49:45.078Z,22.93
2018-04-14T17:52:11.117Z,19.83
2018-04-14T17:54:37.101Z,18.27
2018-04-14T17:57:03.226Z,19.23
2018-04-14T17:59:29.261Z,17.13
2018-04-14T18:01:55.305Z,21.90
2018-04-14T18:04:21.320Z,20.07
2018-04-14T18:06:47.331Z,19.57
2018-04-14T18:09:13.320Z,18.27
2018-04-14T18:11:39.345Z,19.17
2018-04-14T18:14:05.440Z,17.70
2018-04-14T18:16:31.458Z,22.07
2018-04-14T18:18:57.475Z,21.47
2018-04-14T18:21:23.481Z,21.57
2018-04-14T18:23:49.528Z,22.40
2018-04-14T18:26:15.568Z,20.40
2018-04-14T18:28:41.563Z,22.60
2018-04-14T18:31:07.566Z,22.73
2018-04-14T18:33:33.602Z,21.30
2018-04-14T18:35:59.608Z,22.13
2018-04-14T18:38:25.635Z,21.50
2018-04-14T18:40:51.641Z,20.93
2018-04-14T18:43:17.737Z,21.87
2018-04-14T18:45:43.772Z,22.93
2018-04-14T18:48:09.814Z,25.07
2018-04-14T18:50:35.846Z,24.60
2018-04-14T18:53:01.911Z,25.13
2018-04-14T18:55:27.933Z,25.93
2018-04-14T18:57:53.956Z,25.03
2018-04-14T19:00:21.793Z,26.37
2018-04-14T19:02:48.156Z,25.73
2018-04-14T19:05:14.170Z,30.13
2018-04-14T19:07:40.213Z,30.93
2018-04-14T19:10:06.373Z,33.60
2018-04-14T19:12:32.519Z,35.60
2018-04-14T19:14:58.555Z,33.83
2018-04-14T19:17:24.753Z,34.90
2018-04-14T19:19:50.773Z,31.57
2018-04-14T19:22:16.853Z,31.90
2018-04-14T19:24:42.942Z,34.57
2018-04-14T19:27:09.019Z,34.17
2018-04-14T19:29:35.052Z,33.23
2018-04-14T19:32:01.133Z,32.33
2018-04-14T19:34:27.128Z,33.13
2018-04-14T19:36:53.161Z,29.90
2018-04-14T19:39:19.227Z,33.33
2018-04-14T19:41:45.261Z,32.63
2018-04-14T19:44:11.460Z,32.17
2018-04-14T19:46:37.553Z,32.50
2018-04-14T19:49:03.581Z,34.30
2018-04-14T19:51:29.589Z,32.30
2018-04-14T19:53:55.688Z,32.73
2018-04-14T19:56:21.778Z,33.93
2018-04-14T19:58:47.791Z,35.10
2018-04-14T20:01:13.852Z,36.30
2018-04-14T20:03:39.950Z,33.90
2018-04-14T20:06:07.057Z,33.03
2018-04-14T20:08:33.163Z,39.53
2018-04-14T20:10:59.209Z,35.53
2018-04-14T20:13:25.292Z,34.33
2018-04-14T20:15:51.338Z,35.53
2018-04-14T20:18:17.389Z,40.87
2018-04-14T20:20:43.516Z,40.03
2018-04-14T20:23:09.602Z,38.30
2018-04-14T20:25:35.610Z,41.00
2018-04-14T20:28:01.663Z,39.60
2018-04-14T20:30:27.752Z,41.13
2018-04-14T20:32:53.791Z,39.40
2018-04-14T20:35:19.813Z,42.23
2018-04-14T20:37:45.832Z,43.13
2018-04-14T20:40:11.852Z,46.67
2018-04-14T20:42:37.895Z,41.77
2018-04-14T20:45:03.956Z,45.23
2018-04-14T20:47:30.012Z,42.80
2018-04-14T20:49:56.101Z,43.77
2018-04-14T20:52:22.192Z,44.07
2018-04-14T20:54:48.256Z,46.80
2018-04-14T20:57:14.288Z,45.60
2018-04-14T20:59:40.341Z,46.72
2018-04-14T21:02:06.351Z,48.80
2018-04-14T21:04:32.372Z,45.17
2018-04-14T21:06:58.512Z,45.60
2018-04-14T21:09:24.543Z,46.42
2018-04-14T21:11:50.618Z,45.47
2018-04-14T21:14:17.024Z,42.17
2018-04-14T21:16:43.125Z,45.07
2018-04-14T21:19:09.134Z,45.10
2018-04-14T21:21:35.277Z,51.57
2018-04-14T21:24:01.302Z,42.87
2018-04-14T21:26:27.407Z,47.37
2018-04-14T21:28:53.421Z,46.33
2018-04-14T21:31:19.452Z,44.90
2018-04-14T21:33:45.477Z,43.47
2018-04-14T21:36:11.592Z,43.47
2018-04-14T21:38:37.627Z,46.65
2018-04-14T21:41:03.650Z,45.73
2018-04-14T21:43:29.735Z,47.77
2018-04-14T21:45:55.724Z,50.23
2018-04-14T21:48:21.820Z,49.10
2018-04-14T21:50:47.933Z,50.23
2018-04-14T21:53:13.973Z,49.50
2018-04-14T21:55:39.998Z,58.25
2018-04-14T21:58:06.013Z,53.23
2018-04-14T22:00:32.157Z,52.50
2018-04-14T22:02:58.188Z,60.40
2018-04-14T22:05:24.200Z,60.03
2018-04-14T22:07:50.264Z,56.53
2018-04-14T22:10:16.347Z,58.27
2018-04-14T22:12:42.425Z,61.43
2018-04-14T22:15:08.438Z,54.15
2018-04-14T22:17:34.485Z,59.22
2018-04-14T22:20:00.646Z,60.07
2018-04-14T22:22:26.777Z,59.10
2018-04-14T22:24:52.785Z,57.27
2018-04-14T22:27:18.827Z,51.47
2018-04-14T22:29:45.390Z,61.85
2018-04-14T22:32:11.455Z,50.00
2018-04-14T22:34:37.536Z,58.70
2018-04-14T22:37:03.673Z,61.25
2018-04-14T22:39:29.736Z,64.45
2018-04-14T22:41:55.763Z,50.45
2018-04-14T22:44:21.854Z,60.15
2018-04-14T22:46:47.841Z,55.42
2018-04-14T22:49:13.922Z,62.97
2018-04-14T22:51:39.987Z,53.87
2018-04-14T22:54:05.999Z,57.10
2018-04-14T22:56:32.061Z,56.83
2018-04-14T22:58:58.079Z,67.30
2018-04-14T23:01:24.096Z,60.75
2018-04-14T23:03:50.176Z,68.30
2018-04-14T23:06:16.698Z,67.80
2018-04-14T23:08:42.893Z,67.75
2018-04-14T23:11:08.951Z,58.08
2018-04-14T23:13:34.976Z,61.07
2018-04-14T23:16:01.046Z,59.00
2018-04-14T23:18:27.144Z,56.63
2018-04-14T23:20:53.210Z,61.13
2018-04-14T23:23:19.208Z,80.68
2018-04-14T23:25:45.252Z,74.10
2018-04-14T23:28:11.264Z,74.75
2018-04-14T23:30:37.273Z,65.22
2018-04-14T23:33:03.269Z,74.63
2018-04-14T23:35:29.304Z,62.23
2018-04-14T23:37:55.312Z,75.87
2018-04-14T23:40:21.332Z,61.63
2018-04-14T23:42:47.369Z,64.12
2018-04-14T23:45:13.377Z,78.78
2018-04-14T23:47:39.404Z,66.03
2018-04-14T23:50:05.421Z,90.40
2018-04-14T23:52:31.452Z,84.70
2018-04-14T23:54:57.479Z,68.72
2018-04-14T23:57:23.483Z,89.62
2018-04-14T23:59:49.478Z,92.50
